createdAt,value
2024-02-09T00:02:18.588Z,27.23
2024-02-09T00:04:47.919Z,31.30
2024-02-09T00:07:17.287Z,28.30
2024-02-09T00:09:46.451Z,29.95
2024-02-09T00:12:15.833Z,31.92
2024-02-09T00:14:46.117Z,34.35
2024-02-09T00:17:15.811Z,34.25
2024-02-09T00:19:45.335Z,31.40
2024-02-09T00:22:14.695Z,33.55
2024-02-09T00:24:44.676Z,30.80
2024-02-09T00:27:14.628Z,37.95
2024-02-09T00:29:44.641Z,38.50
2024-02-09T00:32:16.441Z,38.88
2024-02-09T00:34:47.608Z,37.38
2024-02-09T00:37:16.988Z,39.28
2024-02-09T00:39:45.976Z,37.80
2024-02-09T00:42:15.163Z,29.65
2024-02-09T00:44:46.825Z,34.25
2024-02-09T00:47:16.218Z,35.85
2024-02-09T00:49:49.229Z,34.85
2024-02-09T00:52:19.863Z,39.00
2024-02-09T00:54:49.438Z,31.27
2024-02-09T00:57:18.395Z,36.70
2024-02-09T00:59:48.286Z,36.28
2024-02-09T01:02:17.681Z,40.03
2024-02-09T01:04:46.959Z,36.47
2024-02-09T01:07:16.622Z,38.85
2024-02-09T01:09:45.686Z,41.95
2024-02-09T01:12:33.115Z,37.47
2024-02-09T01:15:20.915Z,38.50
2024-02-09T01:18:08.446Z,38.70
2024-02-09T01:20:56.293Z,39.67
2024-02-09T01:23:43.946Z,31.40
2024-02-09T01:26:31.666Z,39.13
2024-02-09T01:29:19.078Z,35.03
2024-02-09T01:32:06.979Z,33.53
2024-02-09T01:34:55.183Z,40.15
2024-02-09T01:37:44.414Z,37.78
2024-02-09T01:40:33.144Z,40.10
2024-02-09T01:43:25.086Z,41.17
2024-02-09T01:46:15.886Z,37.40
2024-02-09T01:49:04.338Z,37.00
2024-02-09T01:51:53.146Z,42.20
2024-02-09T01:54:41.226Z,38.53
2024-02-09T01:57:29.720Z,38.75
2024-02-09T02:00:17.681Z,37.50
2024-02-09T02:03:05.605Z,43.72
2024-02-09T02:05:55.356Z,39.22
2024-02-09T02:08:44.739Z,39.72
2024-02-09T02:11:33.582Z,39.40
2024-02-09T02:14:20.945Z,40.75
2024-02-09T02:17:08.941Z,42.63
2024-02-09T02:19:57.598Z,43.80
2024-02-09T02:22:52.210Z,44.13
2024-02-09T02:25:40.428Z,52.50
2024-02-09T02:28:31.313Z,41.58
2024-02-09T02:31:19.208Z,52.30
2024-02-09T02:34:06.819Z,61.65
2024-02-09T02:36:54.501Z,55.78
2024-02-09T02:39:42.647Z,50.63
2024-02-09T02:42:12.145Z,50.55
2024-02-09T02:44:41.204Z,47.58
2024-02-09T02:47:10.666Z,49.63
2024-02-09T02:49:58.335Z,46.78
2024-02-09T02:52:45.894Z,46.17
2024-02-09T02:55:33.833Z,51.72
2024-02-09T02:58:21.352Z,51.65
2024-02-09T03:01:09.345Z,54.30
2024-02-09T03:04:01.954Z,51.42
2024-02-09T03:06:42.271Z,39.90
2024-02-09T03:09:21.639Z,44.45
2024-02-09T03:11:52.667Z,40.45
2024-02-09T03:14:22.085Z,39.50
2024-02-09T03:16:51.264Z,37.60
2024-02-09T03:19:21.048Z,40.05
2024-02-09T03:21:50.518Z,41.30
2024-02-09T03:24:19.840Z,36.83
2024-02-09T03:26:49.455Z,39.88
2024-02-09T03:29:18.814Z,42.47
2024-02-09T03:31:48.162Z,33.92
2024-02-09T03:34:19.653Z,38.10
2024-02-09T03:36:49.525Z,38.65
2024-02-09T03:39:20.058Z,34.78
2024-02-09T03:41:49.715Z,34.08
2024-02-09T03:44:19.336Z,36.17
2024-02-09T03:46:49.221Z,76.68
2024-02-09T03:49:21.907Z,40.38
2024-02-09T03:51:51.254Z,40.50
2024-02-09T03:54:20.802Z,44.92
2024-02-09T03:56:50.216Z,36.72
2024-02-09T03:59:19.603Z,35.15
2024-02-09T04:01:48.899Z,50.75
2024-02-09T04:04:20.852Z,38.30
2024-02-09T04:06:50.401Z,33.95
2024-02-09T04:11:51.930Z,26.58
2024-02-09T04:14:21.402Z,34.60
2024-02-09T04:16:53.697Z,31.17
2024-02-09T04:19:23.875Z,32.17
2024-02-09T04:21:53.703Z,39.92
2024-02-09T04:24:28.009Z,33.95
2024-02-09T04:26:58.377Z,36.03
2024-02-09T04:29:29.185Z,30.50
2024-02-09T04:31:59.148Z,28.73
2024-02-09T04:34:29.049Z,34.50
2024-02-09T04:36:58.801Z,40.10
2024-02-09T04:39:28.643Z,27.20
2024-02-09T04:41:59.169Z,30.40
2024-02-09T04:44:28.979Z,33.42
2024-02-09T04:46:59.007Z,32.45
2024-02-09T04:49:28.741Z,32.10
2024-02-09T04:51:57.993Z,31.95
2024-02-09T04:54:27.560Z,26.50
2024-02-09T04:56:58.569Z,28.70
2024-02-09T04:59:32.921Z,31.20
2024-02-09T05:02:02.410Z,28.05
2024-02-09T05:04:31.914Z,25.90
2024-02-09T05:07:01.377Z,23.10
2024-02-09T05:09:32.078Z,33.58
2024-02-09T05:12:01.532Z,24.10
2024-02-09T05:14:32.165Z,22.63
2024-02-09T05:17:01.757Z,27.23
2024-02-09T05:19:31.089Z,24.05
2024-02-09T05:22:01.163Z,22.08
2024-02-09T05:24:30.935Z,19.95
2024-02-09T05:27:00.508Z,19.90
2024-02-09T05:29:30.165Z,21.83
2024-02-09T05:32:00.437Z,23.67
2024-02-09T05:34:30.104Z,22.70
2024-02-09T05:37:00.754Z,22.25
2024-02-09T05:39:31.416Z,22.42
2024-02-09T05:42:00.984Z,30.70
2024-02-09T05:44:30.469Z,24.10
2024-02-09T05:47:00.096Z,30.30
2024-02-09T05:49:29.948Z,25.48
2024-02-09T05:51:59.650Z,32.00
2024-02-09T05:54:29.388Z,30.65
2024-02-09T05:56:58.966Z,30.23
2024-02-09T05:59:28.477Z,28.98
2024-02-09T06:01:58.134Z,28.65
2024-02-09T06:04:27.740Z,27.98
2024-02-09T06:06:57.207Z,27.98
2024-02-09T06:09:26.979Z,26.92
2024-02-09T06:11:59.737Z,29.02
2024-02-09T06:14:29.256Z,29.70
2024-02-09T06:16:58.593Z,28.83
2024-02-09T06:19:28.194Z,27.25
2024-02-09T06:21:58.296Z,29.45
2024-02-09T06:24:27.846Z,29.50
2024-02-09T06:26:59.175Z,31.15
2024-02-09T06:29:32.778Z,34.40
2024-02-09T06:32:02.670Z,34.50
2024-02-09T06:34:32.148Z,36.80
2024-02-09T06:37:02.141Z,33.35
2024-02-09T06:39:31.952Z,26.15
2024-02-09T06:42:01.593Z,32.75
2024-02-09T06:44:33.136Z,31.67
2024-02-09T06:47:03.206Z,29.70
2024-02-09T06:49:32.929Z,29.77
2024-02-09T06:52:03.199Z,29.60
2024-02-09T06:54:33.040Z,36.22
2024-02-09T06:57:02.938Z,30.88
2024-02-09T06:59:32.655Z,27.75
2024-02-09T07:02:07.773Z,34.35
2024-02-09T07:04:38.660Z,27.77
2024-02-09T07:07:10.850Z,33.03
2024-02-09T07:09:40.487Z,24.83
2024-02-09T07:12:10.752Z,28.67
2024-02-09T07:14:40.397Z,26.17
2024-02-09T07:17:10.047Z,27.52
2024-02-09T07:19:40.158Z,26.00
2024-02-09T07:22:10.540Z,25.30
2024-02-09T07:24:41.656Z,26.02
2024-02-09T07:27:11.633Z,24.23
2024-02-09T07:29:41.361Z,27.13
2024-02-09T07:32:11.534Z,22.63
2024-02-09T07:34:41.694Z,26.58
2024-02-09T07:37:13.640Z,21.65
2024-02-09T07:39:43.637Z,26.40
2024-02-09T07:42:14.922Z,22.45
2024-02-09T07:44:44.691Z,23.13
2024-02-09T07:47:15.168Z,19.90
2024-02-09T07:49:45.958Z,23.27
2024-02-09T07:52:15.681Z,19.80
2024-02-09T07:54:45.126Z,22.02
2024-02-09T07:57:15.878Z,24.00
2024-02-09T07:59:46.202Z,17.45
2024-02-09T08:02:16.129Z,22.90
2024-02-09T08:04:45.949Z,21.67
2024-02-09T08:07:17.548Z,25.00
2024-02-09T08:09:47.085Z,16.65
2024-02-09T08:12:20.482Z,19.67
2024-02-09T08:14:51.602Z,23.77
2024-02-09T08:17:22.353Z,21.52
2024-02-09T08:19:53.429Z,20.02
2024-02-09T08:22:25.028Z,18.35
2024-02-09T08:24:57.833Z,24.20
2024-02-09T08:27:28.366Z,19.27
2024-02-09T08:29:58.491Z,16.65
2024-02-09T08:32:29.592Z,21.40
2024-02-09T08:34:59.365Z,18.45
2024-02-09T08:37:33.288Z,19.20
2024-02-09T08:40:05.268Z,19.20
2024-02-09T08:42:37.439Z,18.95
2024-02-09T08:45:07.306Z,21.27
2024-02-09T08:47:37.303Z,19.20
2024-02-09T08:50:08.405Z,19.60
2024-02-09T08:52:38.311Z,18.45
2024-02-09T08:55:09.522Z,14.98
2024-02-09T08:57:41.574Z,15.63
2024-02-09T09:00:13.235Z,18.58
2024-02-09T09:02:44.374Z,16.33
2024-02-09T09:05:14.439Z,18.25
2024-02-09T09:07:44.187Z,17.23
2024-02-09T09:10:14.024Z,14.57
2024-02-09T09:12:46.368Z,17.48
2024-02-09T09:15:21.566Z,18.25
2024-02-09T09:17:52.753Z,16.15
2024-02-09T09:20:23.972Z,16.40
2024-02-09T09:22:55.274Z,17.75
2024-02-09T09:25:24.903Z,17.17
2024-02-09T09:27:55.643Z,17.83
2024-02-09T09:30:33.098Z,16.67
2024-02-09T09:33:03.175Z,18.08
2024-02-09T09:35:35.893Z,12.32
2024-02-09T09:38:10.636Z,9.23
2024-02-09T09:40:43.276Z,13.50
2024-02-09T09:43:13.332Z,10.35
2024-02-09T09:45:43.555Z,12.27
2024-02-09T09:48:17.639Z,15.82
2024-02-09T09:50:47.419Z,13.55
2024-02-09T09:53:17.820Z,14.90
2024-02-09T09:55:49.034Z,14.60
2024-02-09T09:58:19.227Z,15.50
2024-02-09T10:00:51.141Z,13.18
2024-02-09T10:03:21.266Z,16.50
2024-02-09T10:05:51.122Z,15.63
2024-02-09T10:08:21.363Z,13.45
2024-02-09T10:10:53.537Z,19.10
2024-02-09T10:13:26.244Z,18.52
2024-02-09T10:15:57.462Z,17.27
2024-02-09T10:18:27.586Z,19.98
2024-02-09T10:20:58.005Z,14.20
2024-02-09T10:23:31.052Z,11.80
2024-02-09T10:26:06.054Z,19.58
2024-02-09T10:28:36.009Z,13.75
2024-02-09T10:31:06.314Z,13.05
2024-02-09T10:33:38.879Z,13.25
2024-02-09T10:36:11.356Z,11.27
2024-02-09T10:38:41.828Z,9.35
2024-02-09T10:41:15.216Z,21.15
2024-02-09T10:46:15.059Z,11.50
2024-02-09T10:48:45.268Z,10.90
2024-02-09T10:51:17.058Z,11.88
2024-02-09T10:54:13.419Z,11.38
2024-02-09T10:56:43.298Z,13.05
2024-02-09T10:59:15.994Z,12.38
2024-02-09T11:01:46.307Z,9.95
2024-02-09T11:04:16.140Z,9.95
2024-02-09T11:06:46.924Z,11.32
2024-02-09T11:09:16.956Z,12.50
2024-02-09T11:11:50.033Z,10.77
2024-02-09T11:14:19.935Z,11.63
2024-02-09T11:16:52.890Z,9.35
2024-02-09T11:19:24.764Z,9.25
2024-02-09T11:21:59.887Z,10.90
2024-02-09T11:24:29.621Z,13.35
2024-02-09T11:27:03.878Z,12.05
2024-02-09T11:29:37.552Z,10.70
2024-02-09T11:32:07.736Z,12.25
2024-02-09T11:34:39.187Z,15.10
2024-02-09T11:37:08.714Z,12.68
2024-02-09T11:39:39.603Z,13.73
2024-02-09T11:42:09.125Z,13.13
2024-02-09T11:44:39.754Z,14.63
2024-02-09T11:47:09.424Z,16.38
2024-02-09T11:49:40.718Z,14.38
2024-02-09T11:52:11.211Z,16.33
2024-02-09T11:54:41.083Z,12.00
2024-02-09T11:57:12.177Z,12.23
2024-02-09T11:59:43.620Z,12.18
2024-02-09T12:02:13.419Z,9.75
2024-02-09T12:04:43.096Z,9.65
2024-02-09T12:07:13.821Z,10.73
2024-02-09T12:09:43.504Z,10.10
2024-02-09T12:12:13.375Z,15.25
2024-02-09T12:14:42.860Z,12.73
2024-02-09T12:17:13.677Z,11.95
2024-02-09T12:19:44.450Z,12.55
2024-02-09T12:22:14.643Z,14.43
2024-02-09T12:24:45.632Z,10.82
2024-02-09T12:27:20.140Z,19.60
2024-02-09T12:29:51.526Z,16.95
2024-02-09T12:32:23.686Z,15.68
2024-02-09T12:34:53.142Z,18.95
2024-02-09T12:37:22.524Z,15.90
2024-02-09T12:39:58.930Z,17.55
2024-02-09T12:42:35.004Z,23.08
2024-02-09T12:45:05.341Z,22.38
2024-02-09T12:47:34.863Z,19.38
2024-02-09T12:50:05.637Z,18.90
2024-02-09T12:52:37.790Z,25.55
2024-02-09T12:55:07.877Z,16.63
2024-02-09T12:57:41.380Z,23.88
2024-02-09T13:00:11.640Z,25.23
2024-02-09T13:02:41.233Z,23.40
2024-02-09T13:05:11.072Z,26.45
2024-02-09T13:07:41.305Z,29.75
2024-02-09T13:10:12.392Z,24.65
2024-02-09T13:12:42.504Z,26.50
2024-02-09T13:15:13.852Z,27.48
2024-02-09T13:17:43.456Z,22.45
2024-02-09T13:20:14.192Z,27.42
2024-02-09T13:22:43.740Z,25.75
2024-02-09T13:25:16.244Z,21.98
2024-02-09T13:27:47.996Z,18.80
2024-02-09T13:30:21.520Z,31.40
2024-02-09T13:32:51.187Z,28.02
2024-02-09T13:35:20.804Z,33.65
2024-02-09T13:37:51.523Z,24.55
2024-02-09T13:40:21.748Z,28.83
2024-02-09T13:42:53.796Z,39.50
2024-02-09T13:45:27.245Z,30.40
2024-02-09T13:47:58.852Z,29.42
2024-02-09T13:50:28.937Z,29.77
2024-02-09T13:52:58.967Z,38.65
2024-02-09T13:55:30.035Z,33.08
2024-02-09T13:57:59.662Z,25.67
2024-02-09T14:00:29.104Z,26.85
2024-02-09T14:02:58.788Z,36.28
2024-02-09T14:05:28.456Z,27.83
2024-02-09T14:07:58.993Z,34.35
2024-02-09T14:10:28.706Z,33.05
2024-02-09T14:12:58.001Z,34.00
2024-02-09T14:15:27.554Z,26.55
2024-02-09T14:17:57.716Z,32.28
2024-02-09T14:20:27.925Z,25.05
2024-02-09T14:22:58.018Z,32.95
2024-02-09T14:25:28.475Z,38.10
2024-02-09T14:27:57.650Z,45.90
2024-02-09T14:30:27.408Z,64.60
2024-02-09T14:32:57.083Z,62.03
2024-02-09T14:35:27.403Z,61.05
2024-02-09T14:37:57.105Z,72.93
2024-02-09T14:40:28.169Z,67.20
2024-02-09T14:42:58.123Z,69.65
2024-02-09T14:45:27.901Z,65.63
2024-02-09T14:48:00.155Z,64.60
2024-02-09T14:50:31.125Z,50.30
2024-02-09T14:53:02.248Z,63.00
2024-02-09T14:55:31.886Z,57.72
2024-02-09T14:58:04.425Z,64.28
2024-02-09T15:00:36.410Z,59.08
2024-02-09T15:03:06.391Z,56.65
2024-02-09T15:05:35.994Z,49.42
2024-02-09T15:08:11.605Z,42.60
2024-02-09T15:10:44.844Z,43.50
2024-02-09T15:13:15.914Z,43.80
2024-02-09T15:15:46.611Z,44.05
2024-02-09T15:18:18.241Z,45.05
2024-02-09T15:20:49.645Z,45.50
2024-02-09T15:23:19.709Z,49.63
2024-02-09T15:25:49.198Z,46.38
2024-02-09T15:28:18.966Z,45.38
2024-02-09T15:30:48.511Z,46.03
2024-02-09T15:33:17.722Z,50.55
2024-02-09T15:35:47.639Z,42.83
2024-02-09T15:38:17.093Z,50.67
2024-02-09T15:40:47.752Z,53.20
2024-02-09T15:43:18.098Z,47.90
2024-02-09T15:45:49.258Z,39.95
2024-02-09T15:48:19.661Z,48.38
2024-02-09T15:50:49.169Z,48.35
2024-02-09T15:53:21.824Z,56.25
2024-02-09T15:55:51.672Z,53.38
2024-02-09T15:58:21.789Z,55.38
2024-02-09T16:00:51.643Z,68.57
2024-02-09T16:03:21.112Z,82.68
2024-02-09T16:05:50.709Z,75.88
2024-02-09T16:08:19.928Z,81.45
2024-02-09T16:10:50.201Z,67.35
2024-02-09T16:13:19.710Z,72.05
2024-02-09T16:15:49.469Z,82.28
2024-02-09T16:18:19.001Z,69.50
2024-02-09T16:20:50.102Z,73.65
2024-02-09T16:23:19.514Z,73.80
2024-02-09T16:25:59.209Z,67.72
2024-02-09T16:28:37.120Z,64.82
2024-02-09T16:31:10.740Z,84.60
2024-02-09T16:33:40.495Z,75.97
2024-02-09T16:36:10.272Z,75.85
2024-02-09T16:38:42.912Z,72.65
2024-02-09T16:41:14.030Z,59.88
2024-02-09T16:43:45.360Z,68.55
2024-02-09T16:46:15.016Z,72.80
2024-02-09T16:48:48.628Z,64.65
2024-02-09T16:51:18.885Z,60.13
2024-02-09T16:53:48.295Z,64.05
2024-02-09T16:56:17.812Z,72.88
2024-02-09T16:58:47.627Z,66.28
2024-02-09T17:01:20.365Z,60.17
2024-02-09T17:03:50.577Z,69.57
2024-02-09T17:06:21.460Z,61.28
2024-02-09T17:08:51.060Z,67.35
2024-02-09T17:11:20.521Z,64.30
2024-02-09T17:13:51.522Z,64.13
2024-02-09T17:16:21.284Z,68.53
2024-02-09T17:18:53.116Z,70.68
2024-02-09T17:21:25.087Z,63.47
2024-02-09T17:23:56.910Z,66.65
2024-02-09T17:26:27.290Z,63.03
2024-02-09T17:28:57.065Z,68.95
2024-02-09T17:31:27.380Z,61.15
2024-02-09T17:33:59.775Z,69.50
2024-02-09T17:36:30.608Z,72.07
2024-02-09T17:39:00.295Z,68.43
2024-02-09T17:41:32.068Z,74.00
2024-02-09T17:44:01.648Z,64.63
2024-02-09T17:46:31.231Z,65.55
2024-02-09T17:49:01.053Z,70.55
2024-02-09T17:51:30.677Z,72.70
2024-02-09T17:54:00.024Z,73.00
2024-02-09T17:56:30.311Z,68.03
2024-02-09T17:58:59.835Z,74.68
2024-02-09T18:01:39.170Z,75.13
2024-02-09T18:04:10.633Z,75.60
2024-02-09T18:06:41.248Z,71.47
2024-02-09T18:09:10.874Z,75.05
2024-02-09T18:11:41.093Z,75.75
2024-02-09T18:14:11.287Z,72.65
2024-02-09T18:16:41.055Z,77.00
2024-02-09T18:19:10.730Z,69.35
2024-02-09T18:21:40.589Z,75.82
2024-02-09T18:24:22.444Z,67.38
2024-02-09T18:26:53.964Z,67.72
2024-02-09T18:29:23.699Z,69.72
2024-02-09T18:31:54.946Z,72.57
2024-02-09T18:34:24.774Z,70.97
2024-02-09T18:36:54.356Z,73.88
2024-02-09T18:39:23.959Z,76.20
2024-02-09T18:41:54.596Z,66.65
2024-02-09T18:44:24.500Z,72.97
2024-02-09T18:46:57.733Z,68.93
2024-02-09T18:49:31.182Z,68.07
2024-02-09T18:52:02.814Z,77.57
2024-02-09T18:54:32.399Z,83.32
2024-02-09T18:57:01.878Z,65.82
2024-02-09T18:59:31.412Z,76.93
2024-02-09T19:02:01.690Z,68.15
2024-02-09T19:04:34.965Z,79.20
2024-02-09T19:07:06.888Z,71.15
2024-02-09T19:09:37.906Z,74.88
2024-02-09T19:12:09.172Z,77.45
2024-02-09T19:14:43.647Z,79.85
2024-02-09T19:17:16.555Z,75.82
2024-02-09T19:19:46.356Z,85.68
2024-02-09T19:22:15.872Z,84.18
2024-02-09T19:24:45.619Z,72.57
2024-02-09T19:27:15.336Z,78.57
2024-02-09T19:29:44.806Z,73.00
2024-02-09T19:32:14.701Z,83.22
2024-02-09T19:34:45.286Z,82.72
2024-02-09T19:37:17.617Z,84.88
2024-02-09T19:39:53.486Z,85.20
2024-02-09T19:42:26.820Z,78.13
2024-02-09T19:44:57.802Z,76.65
2024-02-09T19:47:27.216Z,74.68
2024-02-09T19:49:56.866Z,81.72
2024-02-09T19:52:26.448Z,82.65
2024-02-09T19:54:58.343Z,75.05
2024-02-09T19:57:28.329Z,74.43
2024-02-09T19:59:59.584Z,72.43
2024-02-09T20:02:33.618Z,80.60
2024-02-09T20:05:11.857Z,95.50
2024-02-09T20:07:41.890Z,83.45
2024-02-09T20:10:12.101Z,81.15
2024-02-09T20:12:42.214Z,76.15
2024-02-09T20:15:22.057Z,82.97
2024-02-09T20:17:51.872Z,81.57
2024-02-09T20:20:22.553Z,76.68
2024-02-09T20:22:53.029Z,82.80
2024-02-09T20:25:23.849Z,81.60
2024-02-09T20:27:53.547Z,75.97
2024-02-09T20:30:24.940Z,74.30
2024-02-09T20:33:01.538Z,79.53
2024-02-09T20:35:31.469Z,87.38
2024-02-09T20:38:03.077Z,88.65
2024-02-09T20:40:32.715Z,81.15
2024-02-09T20:43:02.895Z,83.13
2024-02-09T20:45:37.365Z,91.75
2024-02-09T20:48:10.190Z,85.90
2024-02-09T20:50:42.986Z,83.53
2024-02-09T20:53:14.163Z,80.28
2024-02-09T20:55:45.079Z,86.78
2024-02-09T20:58:14.588Z,97.35
2024-02-09T21:00:45.601Z,91.63
2024-02-09T21:03:15.276Z,79.93
2024-02-09T21:05:50.183Z,79.75
2024-02-09T21:08:21.896Z,83.43
2024-02-09T21:10:51.472Z,82.38
2024-02-09T21:13:20.799Z,82.22
2024-02-09T21:15:52.269Z,79.13
2024-02-09T21:18:24.215Z,78.05
2024-02-09T21:20:56.292Z,77.00
2024-02-09T21:23:30.992Z,78.35
2024-02-09T21:26:01.717Z,76.70
2024-02-09T21:28:33.137Z,77.22
2024-02-09T21:31:02.649Z,78.30
2024-02-09T21:33:33.132Z,80.50
2024-02-09T21:36:08.459Z,79.43
2024-02-09T21:38:38.248Z,70.75
2024-02-09T21:41:07.809Z,68.38
2024-02-09T21:43:37.650Z,78.40
2024-02-09T21:46:07.795Z,72.88
2024-02-09T21:48:40.760Z,75.35
2024-02-09T21:51:11.592Z,78.75
2024-02-09T21:53:41.179Z,82.20
2024-02-09T21:56:13.907Z,74.80
2024-02-09T21:58:45.154Z,70.55
2024-02-09T22:01:14.619Z,68.40
2024-02-09T22:03:44.617Z,75.50
2024-02-09T22:06:14.407Z,78.15
2024-02-09T22:08:45.388Z,80.53
2024-02-09T22:11:15.297Z,78.70
2024-02-09T22:13:46.232Z,76.00
2024-02-09T22:16:17.012Z,76.32
2024-02-09T22:18:47.291Z,76.93
2024-02-09T22:21:17.095Z,73.60
2024-02-09T22:23:50.004Z,78.88
2024-02-09T22:26:21.016Z,77.65
2024-02-09T22:28:51.392Z,77.55
2024-02-09T22:31:21.278Z,71.85
2024-02-09T22:33:51.899Z,71.88
2024-02-09T22:36:21.560Z,73.82
2024-02-09T22:38:50.921Z,70.88
2024-02-09T22:41:21.712Z,72.82
2024-02-09T22:43:59.760Z,79.05
2024-02-09T22:46:29.903Z,69.90
2024-02-09T22:48:59.958Z,71.45
2024-02-09T22:51:32.496Z,76.43
2024-02-09T22:54:04.062Z,76.70
2024-02-09T22:56:34.512Z,71.90
2024-02-09T22:59:06.977Z,73.95
2024-02-09T23:01:37.379Z,70.07
2024-02-09T23:04:06.909Z,68.47
2024-02-09T23:06:39.079Z,65.82
2024-02-09T23:09:08.696Z,70.25
2024-02-09T23:11:37.996Z,64.68
2024-02-09T23:14:07.492Z,64.35
2024-02-09T23:16:36.827Z,64.72
2024-02-09T23:19:06.821Z,70.38
2024-02-09T23:21:36.530Z,65.13
2024-02-09T23:24:06.232Z,67.85
2024-02-09T23:26:36.023Z,64.53
2024-02-09T23:29:09.823Z,62.67
2024-02-09T23:31:40.319Z,65.28
2024-02-09T23:34:11.504Z,67.28
2024-02-09T23:36:41.853Z,66.53
2024-02-09T23:39:12.608Z,62.58
2024-02-09T23:41:42.338Z,62.05
2024-02-09T23:44:11.700Z,65.75
2024-02-09T23:46:41.286Z,65.55
2024-02-09T23:49:13.227Z,64.70
2024-02-09T23:51:43.184Z,71.43
2024-02-09T23:54:17.114Z,68.32
2024-02-09T23:56:46.942Z,67.28
2024-02-09T23:59:18.477Z,76.00
